sensor_id;sensor_type;location;lat;lon;timestamp;P1;durP1;ratioP1;P2;durP2;ratioP2
39410;SDS011;26579;43.238;23.124;2023-04-03T00:01:10;13.30;;;3.42;;
39410;SDS011;26579;43.238;23.124;2023-04-03T00:03:37;7.45;;;2.00;;
39410;SDS011;26579;43.238;23.124;2023-04-03T00:06:03;6.93;;;2.22;;
39410;SDS011;26579;43.238;23.124;2023-04-03T00:08:29;9.75;;;2.95;;
39410;SDS011;26579;43.238;23.124;2023-04-03T00:10:55;7.80;;;2.78;;
39410;SDS011;26579;43.238;23.124;2023-04-03T00:13:20;9.60;;;2.60;;
39410;SDS011;26579;43.238;23.124;2023-04-03T00:15:46;9.63;;;2.40;;
39410;SDS011;26579;43.238;23.124;2023-04-03T00:18:12;7.28;;;1.77;;
39410;SDS011;26579;43.238;23.124;2023-04-03T00:20:37;7.78;;;2.25;;
39410;SDS011;26579;43.238;23.124;2023-04-03T00:23:03;6.70;;;2.28;;
39410;SDS011;26579;43.238;23.124;2023-04-03T00:25:29;3.65;;;1.55;;
39410;SDS011;26579;43.238;23.124;2023-04-03T00:27:54;5.57;;;1.52;;
39410;SDS011;26579;43.238;23.124;2023-04-03T00:30:20;8.50;;;2.60;;
39410;SDS011;26579;43.238;23.124;2023-04-03T00:32:50;6.13;;;2.65;;
39410;SDS011;26579;43.238;23.124;2023-04-03T00:35:17;7.82;;;2.13;;
39410;SDS011;26579;43.238;23.124;2023-04-03T00:37:44;5.00;;;1.70;;
39410;SDS011;26579;43.238;23.124;2023-04-03T00:40:10;8.63;;;2.53;;
39410;SDS011;26579;43.238;23.124;2023-04-03T00:42:37;5.40;;;2.72;;
39410;SDS011;26579;43.238;23.124;2023-04-03T00:47:31;9.40;;;3.38;;
39410;SDS011;26579;43.238;23.124;2023-04-03T00:49:58;7.00;;;2.38;;
39410;SDS011;26579;43.238;23.124;2023-04-03T00:52:28;7.13;;;2.88;;
39410;SDS011;26579;43.238;23.124;2023-04-03T00:54:57;8.05;;;3.33;;
39410;SDS011;26579;43.238;23.124;2023-04-03T00:57:26;7.15;;;2.70;;
39410;SDS011;26579;43.238;23.124;2023-04-03T00:59:55;8.43;;;2.40;;
39410;SDS011;26579;43.238;23.124;2023-04-03T01:02:27;9.60;;;3.55;;
39410;SDS011;26579;43.238;23.124;2023-04-03T01:04:53;14.95;;;4.55;;
39410;SDS011;26579;43.238;23.124;2023-04-03T01:07:29;9.63;;;4.22;;
39410;SDS011;26579;43.238;23.124;2023-04-03T01:09:57;8.75;;;3.30;;
39410;SDS011;26579;43.238;23.124;2023-04-03T01:12:26;5.80;;;3.03;;
39410;SDS011;26579;43.238;23.124;2023-04-03T01:14:55;7.03;;;3.28;;
39410;SDS011;26579;43.238;23.124;2023-04-03T01:25:29;4.55;;;1.80;;
39410;SDS011;26579;43.238;23.124;2023-04-03T01:27:56;5.05;;;2.22;;
39410;SDS011;26579;43.238;23.124;2023-04-03T01:30:23;4.88;;;1.85;;
39410;SDS011;26579;43.238;23.124;2023-04-03T01:32:56;2.58;;;1.30;;
39410;SDS011;26579;43.238;23.124;2023-04-03T01:35:22;3.33;;;1.40;;
39410;SDS011;26579;43.238;23.124;2023-04-03T01:37:48;2.92;;;1.27;;
39410;SDS011;26579;43.238;23.124;2023-04-03T01:40:14;2.75;;;1.38;;
39410;SDS011;26579;43.238;23.124;2023-04-03T01:42:40;3.78;;;1.83;;
39410;SDS011;26579;43.238;23.124;2023-04-03T01:45:06;3.30;;;1.40;;
39410;SDS011;26579;43.238;23.124;2023-04-03T01:47:32;2.78;;;1.50;;
39410;SDS011;26579;43.238;23.124;2023-04-03T01:49:57;3.70;;;1.67;;
39410;SDS011;26579;43.238;23.124;2023-04-03T01:52:23;3.65;;;1.83;;
39410;SDS011;26579;43.238;23.124;2023-04-03T01:54:50;3.42;;;1.60;;
39410;SDS011;26579;43.238;23.124;2023-04-03T01:57:16;5.78;;;1.60;;
39410;SDS011;26579;43.238;23.124;2023-04-03T01:59:42;4.70;;;2.13;;
39410;SDS011;26579;43.238;23.124;2023-04-03T02:02:08;4.32;;;1.80;;
39410;SDS011;26579;43.238;23.124;2023-04-03T02:04:35;3.15;;;1.60;;
39410;SDS011;26579;43.238;23.124;2023-04-03T02:07:00;3.13;;;1.73;;
39410;SDS011;26579;43.238;23.124;2023-04-03T02:09:26;4.20;;;1.80;;
39410;SDS011;26579;43.238;23.124;2023-04-03T02:11:52;4.75;;;1.70;;
39410;SDS011;26579;43.238;23.124;2023-04-03T02:14:18;4.22;;;1.70;;
39410;SDS011;26579;43.238;23.124;2023-04-03T02:16:44;4.25;;;1.58;;
39410;SDS011;26579;43.238;23.124;2023-04-03T02:19:10;3.70;;;1.85;;
39410;SDS011;26579;43.238;23.124;2023-04-03T02:21:35;6.97;;;1.40;;
39410;SDS011;26579;43.238;23.124;2023-04-03T02:24:01;3.50;;;1.48;;
39410;SDS011;26579;43.238;23.124;2023-04-03T02:26:27;2.83;;;1.50;;
39410;SDS011;26579;43.238;23.124;2023-04-03T02:28:52;1.90;;;1.05;;
39410;SDS011;26579;43.238;23.124;2023-04-03T02:31:18;3.95;;;2.30;;
39410;SDS011;26579;43.238;23.124;2023-04-03T02:33:45;4.28;;;1.55;;
39410;SDS011;26579;43.238;23.124;2023-04-03T02:36:13;5.15;;;1.40;;
39410;SDS011;26579;43.238;23.124;2023-04-03T02:38:42;2.65;;;1.13;;
39410;SDS011;26579;43.238;23.124;2023-04-03T02:41:09;4.63;;;1.52;;
39410;SDS011;26579;43.238;23.124;2023-04-03T02:43:37;4.32;;;1.50;;
39410;SDS011;26579;43.238;23.124;2023-04-03T02:46:05;4.13;;;1.70;;
39410;SDS011;26579;43.238;23.124;2023-04-03T02:48:31;4.10;;;1.38;;
39410;SDS011;26579;43.238;23.124;2023-04-03T02:50:57;3.97;;;1.67;;
39410;SDS011;26579;43.238;23.124;2023-04-03T02:53:22;4.13;;;1.60;;
39410;SDS011;26579;43.238;23.124;2023-04-03T02:55:49;3.88;;;1.70;;
39410;SDS011;26579;43.238;23.124;2023-04-03T02:58:15;4.75;;;1.90;;
39410;SDS011;26579;43.238;23.124;2023-04-03T03:00:41;3.47;;;1.83;;
39410;SDS011;26579;43.238;23.124;2023-04-03T03:03:07;4.22;;;2.20;;
39410;SDS011;26579;43.238;23.124;2023-04-03T03:05:32;4.50;;;2.03;;
39410;SDS011;26579;43.238;23.124;2023-04-03T03:07:58;8.85;;;3.28;;
39410;SDS011;26579;43.238;23.124;2023-04-03T03:10:24;9.45;;;3.83;;
39410;SDS011;26579;43.238;23.124;2023-04-03T03:12:50;8.27;;;3.47;;
39410;SDS011;26579;43.238;23.124;2023-04-03T03:15:16;8.68;;;4.63;;
39410;SDS011;26579;43.238;23.124;2023-04-03T03:17:42;11.07;;;3.40;;
39410;SDS011;26579;43.238;23.124;2023-04-03T03:20:08;8.75;;;3.42;;
39410;SDS011;26579;43.238;23.124;2023-04-03T03:22:35;7.35;;;3.42;;
39410;SDS011;26579;43.238;23.124;2023-04-03T03:25:01;5.65;;;2.70;;
39410;SDS011;26579;43.238;23.124;2023-04-03T03:27:28;8.68;;;4.00;;
39410;SDS011;26579;43.238;23.124;2023-04-03T03:29:54;8.82;;;3.95;;
39410;SDS011;26579;43.238;23.124;2023-04-03T03:32:20;7.13;;;3.63;;
39410;SDS011;26579;43.238;23.124;2023-04-03T03:34:45;9.48;;;3.47;;
39410;SDS011;26579;43.238;23.124;2023-04-03T03:37:11;10.18;;;4.47;;
39410;SDS011;26579;43.238;23.124;2023-04-03T03:39:37;7.13;;;3.55;;
39410;SDS011;26579;43.238;23.124;2023-04-03T03:42:02;13.30;;;6.45;;
39410;SDS011;26579;43.238;23.124;2023-04-03T03:44:28;16.58;;;9.70;;
39410;SDS011;26579;43.238;23.124;2023-04-03T03:46:55;8.90;;;6.15;;
39410;SDS011;26579;43.238;23.124;2023-04-03T03:49:21;9.35;;;4.90;;
39410;SDS011;26579;43.238;23.124;2023-04-03T03:51:47;6.85;;;3.92;;
39410;SDS011;26579;43.238;23.124;2023-04-03T03:54:12;8.38;;;3.50;;
39410;SDS011;26579;43.238;23.124;2023-04-03T03:56:39;10.10;;;3.97;;
39410;SDS011;26579;43.238;23.124;2023-04-03T03:59:05;9.63;;;3.13;;
39410;SDS011;26579;43.238;23.124;2023-04-03T04:01:31;9.00;;;2.92;;
39410;SDS011;26579;43.238;23.124;2023-04-03T04:03:58;8.13;;;2.92;;
39410;SDS011;26579;43.238;23.124;2023-04-03T04:06:28;9.65;;;3.45;;
39410;SDS011;26579;43.238;23.124;2023-04-03T04:08:57;7.45;;;3.40;;
39410;SDS011;26579;43.238;23.124;2023-04-03T04:11:23;7.45;;;3.83;;
39410;SDS011;26579;43.238;23.124;2023-04-03T04:13:51;6.95;;;3.58;;
39410;SDS011;26579;43.238;23.124;2023-04-03T04:16:18;8.43;;;3.17;;
39410;SDS011;26579;43.238;23.124;2023-04-03T04:18:44;10.52;;;4.78;;
39410;SDS011;26579;43.238;23.124;2023-04-03T04:21:10;3.55;;;2.35;;
39410;SDS011;26579;43.238;23.124;2023-04-03T04:23:37;5.30;;;3.10;;
39410;SDS011;26579;43.238;23.124;2023-04-03T04:26:03;6.22;;;2.88;;
39410;SDS011;26579;43.238;23.124;2023-04-03T04:28:32;11.23;;;4.68;;
39410;SDS011;26579;43.238;23.124;2023-04-03T04:31:00;6.68;;;3.75;;
39410;SDS011;26579;43.238;23.124;2023-04-03T04:33:27;9.40;;;4.35;;
39410;SDS011;26579;43.238;23.124;2023-04-03T04:35:53;8.25;;;4.32;;
39410;SDS011;26579;43.238;23.124;2023-04-03T04:38:20;9.52;;;5.30;;
39410;SDS011;26579;43.238;23.124;2023-04-03T04:40:47;6.88;;;3.50;;
39410;SDS011;26579;43.238;23.124;2023-04-03T04:43:14;4.40;;;2.67;;
39410;SDS011;26579;43.238;23.124;2023-04-03T04:45:41;8.02;;;3.33;;
39410;SDS011;26579;43.238;23.124;2023-04-03T04:48:08;3.90;;;2.42;;
39410;SDS011;26579;43.238;23.124;2023-04-03T04:50:34;6.22;;;3.03;;
39410;SDS011;26579;43.238;23.124;2023-04-03T04:53:00;5.43;;;2.55;;
39410;SDS011;26579;43.238;23.124;2023-04-03T04:55:25;3.72;;;2.75;;
39410;SDS011;26579;43.238;23.124;2023-04-03T04:57:51;5.65;;;3.45;;
39410;SDS011;26579;43.238;23.124;2023-04-03T05:00:18;6.07;;;3.50;;
39410;SDS011;26579;43.238;23.124;2023-04-03T05:02:44;7.20;;;3.80;;
39410;SDS011;26579;43.238;23.124;2023-04-03T05:05:10;6.25;;;3.58;;
39410;SDS011;26579;43.238;23.124;2023-04-03T05:07:37;4.43;;;2.55;;
39410;SDS011;26579;43.238;23.124;2023-04-03T05:10:03;7.55;;;3.15;;
39410;SDS011;26579;43.238;23.124;2023-04-03T05:12:30;6.88;;;3.08;;
39410;SDS011;26579;43.238;23.124;2023-04-03T05:14:59;13.90;;;7.15;;
39410;SDS011;26579;43.238;23.124;2023-04-03T05:17:27;16.27;;;8.75;;
39410;SDS011;26579;43.238;23.124;2023-04-03T05:19:55;14.00;;;6.68;;
39410;SDS011;26579;43.238;23.124;2023-04-03T05:22:22;14.63;;;8.07;;
39410;SDS011;26579;43.238;23.124;2023-04-03T05:24:49;7.10;;;3.63;;
39410;SDS011;26579;43.238;23.124;2023-04-03T05:27:16;5.43;;;3.22;;
39410;SDS011;26579;43.238;23.124;2023-04-03T05:29:46;10.40;;;4.22;;
39410;SDS011;26579;43.238;23.124;2023-04-03T05:32:16;15.40;;;7.18;;
39410;SDS011;26579;43.238;23.124;2023-04-03T05:34:44;17.05;;;8.70;;
39410;SDS011;26579;43.238;23.124;2023-04-03T05:37:10;11.30;;;6.75;;
39410;SDS011;26579;43.238;23.124;2023-04-03T05:39:37;10.82;;;6.25;;
39410;SDS011;26579;43.238;23.124;2023-04-03T05:42:04;7.68;;;4.63;;
39410;SDS011;26579;43.238;23.124;2023-04-03T05:44:30;10.50;;;4.82;;
39410;SDS011;26579;43.238;23.124;2023-04-03T05:46:56;6.43;;;4.38;;
39410;SDS011;26579;43.238;23.124;2023-04-03T05:49:22;5.05;;;3.35;;
39410;SDS011;26579;43.238;23.124;2023-04-03T05:51:48;4.70;;;2.70;;
39410;SDS011;26579;43.238;23.124;2023-04-03T05:54:26;6.15;;;2.90;;
39410;SDS011;26579;43.238;23.124;2023-04-03T05:57:09;6.53;;;2.83;;
39410;SDS011;26579;43.238;23.124;2023-04-03T05:59:35;6.28;;;2.65;;
39410;SDS011;26579;43.238;23.124;2023-04-03T06:02:01;5.47;;;2.28;;
39410;SDS011;26579;43.238;23.124;2023-04-03T06:04:27;5.80;;;2.78;;
39410;SDS011;26579;43.238;23.124;2023-04-03T06:06:53;8.18;;;4.22;;
39410;SDS011;26579;43.238;23.124;2023-04-03T06:09:22;11.90;;;4.53;;
39410;SDS011;26579;43.238;23.124;2023-04-03T06:11:51;10.32;;;6.40;;
39410;SDS011;26579;43.238;23.124;2023-04-03T06:14:17;13.68;;;6.82;;
39410;SDS011;26579;43.238;23.124;2023-04-03T06:16:43;14.35;;;6.80;;
39410;SDS011;26579;43.238;23.124;2023-04-03T06:19:10;12.70;;;6.65;;
39410;SDS011;26579;43.238;23.124;2023-04-03T06:21:40;25.23;;;11.63;;
39410;SDS011;26579;43.238;23.124;2023-04-03T06:24:06;27.65;;;14.02;;
39410;SDS011;26579;43.238;23.124;2023-04-03T06:26:32;22.52;;;11.60;;
39410;SDS011;26579;43.238;23.124;2023-04-03T06:28:58;25.95;;;14.60;;
39410;SDS011;26579;43.238;23.124;2023-04-03T06:31:25;28.85;;;14.05;;
39410;SDS011;26579;43.238;23.124;2023-04-03T06:33:50;27.48;;;15.43;;
39410;SDS011;26579;43.238;23.124;2023-04-03T06:36:18;23.27;;;14.18;;
39410;SDS011;26579;43.238;23.124;2023-04-03T06:38:47;21.65;;;15.25;;
39410;SDS011;26579;43.238;23.124;2023-04-03T06:41:13;21.08;;;13.57;;
39410;SDS011;26579;43.238;23.124;2023-04-03T06:43:40;19.98;;;13.73;;
39410;SDS011;26579;43.238;23.124;2023-04-03T06:46:06;19.70;;;11.27;;
39410;SDS011;26579;43.238;23.124;2023-04-03T06:48:31;20.70;;;12.18;;
39410;SDS011;26579;43.238;23.124;2023-04-03T06:51:00;15.32;;;9.52;;
39410;SDS011;26579;43.238;23.124;2023-04-03T06:53:25;15.55;;;10.40;;
39410;SDS011;26579;43.238;23.124;2023-04-03T06:55:54;10.30;;;6.60;;
39410;SDS011;26579;43.238;23.124;2023-04-03T06:58:20;8.68;;;5.07;;
39410;SDS011;26579;43.238;23.124;2023-04-03T07:00:45;6.82;;;4.15;;
39410;SDS011;26579;43.238;23.124;2023-04-03T07:03:11;4.32;;;2.97;;
39410;SDS011;26579;43.238;23.124;2023-04-03T07:05:37;4.10;;;2.45;;
39410;SDS011;26579;43.238;23.124;2023-04-03T07:08:02;5.35;;;2.35;;
39410;SDS011;26579;43.238;23.124;2023-04-03T07:10:28;5.85;;;2.15;;
39410;SDS011;26579;43.238;23.124;2023-04-03T07:12:54;3.20;;;1.42;;
39410;SDS011;26579;43.238;23.124;2023-04-03T07:15:20;4.50;;;1.63;;
39410;SDS011;26579;43.238;23.124;2023-04-03T07:17:46;3.80;;;1.27;;
39410;SDS011;26579;43.238;23.124;2023-04-03T07:20:11;2.60;;;1.77;;
39410;SDS011;26579;43.238;23.124;2023-04-03T07:22:37;4.65;;;2.00;;
39410;SDS011;26579;43.238;23.124;2023-04-03T07:25:03;7.00;;;2.67;;
39410;SDS011;26579;43.238;23.124;2023-04-03T07:27:29;5.07;;;2.78;;
39410;SDS011;26579;43.238;23.124;2023-04-03T07:29:54;6.13;;;2.92;;
39410;SDS011;26579;43.238;23.124;2023-04-03T07:32:20;5.18;;;2.65;;
39410;SDS011;26579;43.238;23.124;2023-04-03T07:34:46;2.97;;;1.20;;
39410;SDS011;26579;43.238;23.124;2023-04-03T07:37:12;2.17;;;1.23;;
39410;SDS011;26579;43.238;23.124;2023-04-03T07:39:37;3.88;;;1.98;;
39410;SDS011;26579;43.238;23.124;2023-04-03T07:42:03;1.42;;;0.93;;
39410;SDS011;26579;43.238;23.124;2023-04-03T07:44:29;1.23;;;0.60;;
39410;SDS011;26579;43.238;23.124;2023-04-03T07:46:54;1.83;;;0.88;;
39410;SDS011;26579;43.238;23.124;2023-04-03T07:49:20;1.60;;;0.70;;
39410;SDS011;26579;43.238;23.124;2023-04-03T07:51:46;1.33;;;0.77;;
39410;SDS011;26579;43.238;23.124;2023-04-03T07:54:12;2.42;;;1.10;;
39410;SDS011;26579;43.238;23.124;2023-04-03T07:56:37;3.35;;;0.90;;
39410;SDS011;26579;43.238;23.124;2023-04-03T07:59:03;1.67;;;0.88;;
39410;SDS011;26579;43.238;23.124;2023-04-03T08:01:29;1.75;;;0.70;;
39410;SDS011;26579;43.238;23.124;2023-04-03T08:03:54;1.27;;;0.65;;
39410;SDS011;26579;43.238;23.124;2023-04-03T08:06:20;2.17;;;1.58;;
39410;SDS011;26579;43.238;23.124;2023-04-03T08:08:46;1.48;;;0.68;;
39410;SDS011;26579;43.238;23.124;2023-04-03T08:11:11;1.92;;;1.15;;
39410;SDS011;26579;43.238;23.124;2023-04-03T08:13:37;2.58;;;1.05;;
39410;SDS011;26579;43.238;23.124;2023-04-03T08:16:15;3.50;;;2.00;;
39410;SDS011;26579;43.238;23.124;2023-04-03T08:18:43;4.18;;;1.70;;
39410;SDS011;26579;43.238;23.124;2023-04-03T08:21:10;4.57;;;2.47;;
39410;SDS011;26579;43.238;23.124;2023-04-03T08:23:37;4.95;;;1.63;;
39410;SDS011;26579;43.238;23.124;2023-04-03T08:26:09;2.58;;;0.93;;
39410;SDS011;26579;43.238;23.124;2023-04-03T08:28:36;3.45;;;1.48;;
39410;SDS011;26579;43.238;23.124;2023-04-03T08:31:03;3.90;;;2.25;;
39410;SDS011;26579;43.238;23.124;2023-04-03T08:33:34;2.58;;;1.10;;
39410;SDS011;26579;43.238;23.124;2023-04-03T08:35:59;1.98;;;1.00;;
39410;SDS011;26579;43.238;23.124;2023-04-03T08:38:25;1.20;;;0.70;;
39410;SDS011;26579;43.238;23.124;2023-04-03T08:41:04;2.78;;;1.00;;
39410;SDS011;26579;43.238;23.124;2023-04-03T08:46:52;1.40;;;0.82;;
39410;SDS011;26579;43.238;23.124;2023-04-03T08:51:56;2.65;;;1.35;;
39410;SDS011;26579;43.238;23.124;2023-04-03T08:54:33;4.60;;;1.77;;
39410;SDS011;26579;43.238;23.124;2023-04-03T08:57:03;2.08;;;0.85;;
39410;SDS011;26579;43.238;23.124;2023-04-03T08:59:32;1.67;;;0.90;;
39410;SDS011;26579;43.238;23.124;2023-04-03T09:02:00;2.92;;;1.83;;
39410;SDS011;26579;43.238;23.124;2023-04-03T09:04:29;9.40;;;1.70;;
39410;SDS011;26579;43.238;23.124;2023-04-03T09:06:58;2.08;;;1.17;;
39410;SDS011;26579;43.238;23.124;2023-04-03T09:09:35;1.48;;;0.77;;
39410;SDS011;26579;43.238;23.124;2023-04-03T09:17:53;2.88;;;1.67;;
39410;SDS011;26579;43.238;23.124;2023-04-03T09:23:59;3.50;;;1.98;;
39410;SDS011;26579;43.238;23.124;2023-04-03T09:26:21;5.55;;;2.30;;
39410;SDS011;26579;43.238;23.124;2023-04-03T09:28:48;6.65;;;1.42;;
39410;SDS011;26579;43.238;23.124;2023-04-03T09:31:24;6.45;;;1.65;;
39410;SDS011;26579;43.238;23.124;2023-04-03T09:33:56;2.35;;;1.27;;
39410;SDS011;26579;43.238;23.124;2023-04-03T09:36:40;5.35;;;2.15;;
39410;SDS011;26579;43.238;23.124;2023-04-03T09:39:13;3.35;;;1.65;;
39410;SDS011;26579;43.238;23.124;2023-04-03T09:44:59;3.90;;;2.40;;
39410;SDS011;26579;43.238;23.124;2023-04-03T09:47:33;2.40;;;1.00;;
39410;SDS011;26579;43.238;23.124;2023-04-03T09:52:37;3.65;;;1.25;;
39410;SDS011;26579;43.238;23.124;2023-04-03T09:55:08;1.15;;;0.70;;
39410;SDS011;26579;43.238;23.124;2023-04-03T09:57:39;7.75;;;2.35;;
39410;SDS011;26579;43.238;23.124;2023-04-03T10:00:05;3.88;;;1.23;;
39410;SDS011;26579;43.238;23.124;2023-04-03T10:02:44;3.42;;;1.60;;
39410;SDS011;26579;43.238;23.124;2023-04-03T10:10:38;1.10;;;0.73;;
39410;SDS011;26579;43.238;23.124;2023-04-03T10:13:12;4.10;;;1.10;;
39410;SDS011;26579;43.238;23.124;2023-04-03T10:15:40;2.97;;;1.10;;
39410;SDS011;26579;43.238;23.124;2023-04-03T10:18:16;2.47;;;1.17;;
39410;SDS011;26579;43.238;23.124;2023-04-03T10:20:53;2.28;;;1.30;;
39410;SDS011;26579;43.238;23.124;2023-04-03T10:23:27;1.67;;;1.05;;
39410;SDS011;26579;43.238;23.124;2023-04-03T10:28:52;2.28;;;1.20;;
39410;SDS011;26579;43.238;23.124;2023-04-03T10:37:11;3.53;;;1.65;;
39410;SDS011;26579;43.238;23.124;2023-04-03T10:42:22;2.90;;;1.63;;
39410;SDS011;26579;43.238;23.124;2023-04-03T10:53:29;3.67;;;1.95;;
39410;SDS011;26579;43.238;23.124;2023-04-03T10:56:15;3.13;;;1.50;;
39410;SDS011;26579;43.238;23.124;2023-04-03T10:58:48;8.68;;;2.35;;
39410;SDS011;26579;43.238;23.124;2023-04-03T11:01:19;2.78;;;1.92;;
39410;SDS011;26579;43.238;23.124;2023-04-03T11:03:49;4.13;;;2.10;;
39410;SDS011;26579;43.238;23.124;2023-04-03T11:06:20;4.60;;;3.20;;
39410;SDS011;26579;43.238;23.124;2023-04-03T11:08:52;3.85;;;2.08;;
39410;SDS011;26579;43.238;23.124;2023-04-03T11:11:26;3.85;;;1.70;;
39410;SDS011;26579;43.238;23.124;2023-04-03T11:13:57;2.13;;;1.10;;
39410;SDS011;26579;43.238;23.124;2023-04-03T11:16:32;1.70;;;1.27;;
39410;SDS011;26579;43.238;23.124;2023-04-03T11:19:11;2.17;;;1.25;;
39410;SDS011;26579;43.238;23.124;2023-04-03T11:21:45;2.08;;;1.30;;
39410;SDS011;26579;43.238;23.124;2023-04-03T11:24:22;3.92;;;1.30;;
39410;SDS011;26579;43.238;23.124;2023-04-03T11:26:51;4.25;;;1.92;;
39410;SDS011;26579;43.238;23.124;2023-04-03T11:29:20;3.20;;;1.42;;
39410;SDS011;26579;43.238;23.124;2023-04-03T11:34:39;9.00;;;2.53;;
39410;SDS011;26579;43.238;23.124;2023-04-03T11:39:54;2.65;;;1.52;;
39410;SDS011;26579;43.238;23.124;2023-04-03T11:42:42;2.05;;;1.27;;
39410;SDS011;26579;43.238;23.124;2023-04-03T11:47:53;5.70;;;2.22;;
39410;SDS011;26579;43.238;23.124;2023-04-03T11:50:31;5.35;;;2.38;;
39410;SDS011;26579;43.238;23.124;2023-04-03T12:05:48;4.28;;;2.70;;
39410;SDS011;26579;43.238;23.124;2023-04-03T12:14:19;2.88;;;1.67;;
39410;SDS011;26579;43.238;23.124;2023-04-03T12:21:23;3.47;;;2.03;;
39410;SDS011;26579;43.238;23.124;2023-04-03T12:26:40;3.25;;;2.17;;
39410;SDS011;26579;43.238;23.124;2023-04-03T12:29:13;5.15;;;1.67;;
39410;SDS011;26579;43.238;23.124;2023-04-03T12:31:45;2.65;;;1.45;;
39410;SDS011;26579;43.238;23.124;2023-04-03T12:35:02;6.50;;;1.95;;
39410;SDS011;26579;43.238;23.124;2023-04-03T12:42:39;4.60;;;2.42;;
39410;SDS011;26579;43.238;23.124;2023-04-03T12:45:19;5.32;;;2.22;;
39410;SDS011;26579;43.238;23.124;2023-04-03T12:47:51;2.30;;;1.48;;
39410;SDS011;26579;43.238;23.124;2023-04-03T12:53:00;8.15;;;4.18;;
39410;SDS011;26579;43.238;23.124;2023-04-03T12:55:27;5.95;;;2.97;;
39410;SDS011;26579;43.238;23.124;2023-04-03T12:57:52;3.90;;;2.00;;
39410;SDS011;26579;43.238;23.124;2023-04-03T13:00:29;4.30;;;2.08;;
39410;SDS011;26579;43.238;23.124;2023-04-03T13:03:01;5.03;;;2.75;;
39410;SDS011;26579;43.238;23.124;2023-04-03T13:05:28;5.93;;;3.38;;
39410;SDS011;26579;43.238;23.124;2023-04-03T13:08:00;4.25;;;2.28;;
39410;SDS011;26579;43.238;23.124;2023-04-03T13:10:28;3.10;;;1.65;;
39410;SDS011;26579;43.238;23.124;2023-04-03T13:12:58;5.88;;;2.50;;
39410;SDS011;26579;43.238;23.124;2023-04-03T13:15:43;5.15;;;2.28;;
39410;SDS011;26579;43.238;23.124;2023-04-03T13:21:16;3.58;;;1.83;;
39410;SDS011;26579;43.238;23.124;2023-04-03T13:23:45;3.03;;;1.75;;
39410;SDS011;26579;43.238;23.124;2023-04-03T13:26:17;3.67;;;2.60;;
39410;SDS011;26579;43.238;23.124;2023-04-03T13:28:45;7.20;;;4.47;;
39410;SDS011;26579;43.238;23.124;2023-04-03T13:33:38;7.82;;;4.72;;
39410;SDS011;26579;43.238;23.124;2023-04-03T13:36:27;5.30;;;2.70;;
39410;SDS011;26579;43.238;23.124;2023-04-03T13:39:01;4.50;;;1.83;;
39410;SDS011;26579;43.238;23.124;2023-04-03T13:41:48;6.97;;;3.22;;
39410;SDS011;26579;43.238;23.124;2023-04-03T13:46:54;3.70;;;2.42;;
39410;SDS011;26579;43.238;23.124;2023-04-03T13:51:56;10.65;;;4.38;;
39410;SDS011;26579;43.238;23.124;2023-04-03T13:54:24;3.78;;;2.55;;
39410;SDS011;26579;43.238;23.124;2023-04-03T13:56:57;5.63;;;2.20;;
39410;SDS011;26579;43.238;23.124;2023-04-03T13:59:29;3.33;;;2.25;;
39410;SDS011;26579;43.238;23.124;2023-04-03T14:04:32;5.20;;;3.72;;
39410;SDS011;26579;43.238;23.124;2023-04-03T14:07:09;5.93;;;3.65;;
39410;SDS011;26579;43.238;23.124;2023-04-03T14:09:38;1.33;;;0.90;;
39410;SDS011;26579;43.238;23.124;2023-04-03T14:12:26;2.53;;;0.82;;
39410;SDS011;26579;43.238;23.124;2023-04-03T14:15:00;1.48;;;1.00;;
39410;SDS011;26579;43.238;23.124;2023-04-03T14:17:29;3.72;;;2.60;;
39410;SDS011;26579;43.238;23.124;2023-04-03T14:19:55;5.20;;;2.72;;
39410;SDS011;26579;43.238;23.124;2023-04-03T14:22:22;7.80;;;3.55;;
39410;SDS011;26579;43.238;23.124;2023-04-03T14:24:49;4.53;;;3.22;;
39410;SDS011;26579;43.238;23.124;2023-04-03T14:27:26;4.45;;;2.72;;
39410;SDS011;26579;43.238;23.124;2023-04-03T14:30:00;2.45;;;2.08;;
39410;SDS011;26579;43.238;23.124;2023-04-03T14:32:26;2.80;;;2.25;;
39410;SDS011;26579;43.238;23.124;2023-04-03T14:34:52;4.97;;;2.22;;
39410;SDS011;26579;43.238;23.124;2023-04-03T14:37:22;3.65;;;2.72;;
39410;SDS011;26579;43.238;23.124;2023-04-03T14:39:50;4.90;;;3.42;;
39410;SDS011;26579;43.238;23.124;2023-04-03T14:42:22;5.32;;;3.15;;
39410;SDS011;26579;43.238;23.124;2023-04-03T14:44:49;8.90;;;6.15;;
39410;SDS011;26579;43.238;23.124;2023-04-03T14:47:17;4.88;;;3.58;;
39410;SDS011;26579;43.238;23.124;2023-04-03T14:49:46;22.27;;;13.63;;
39410;SDS011;26579;43.238;23.124;2023-04-03T14:54:46;23.17;;;13.57;;
39410;SDS011;26579;43.238;23.124;2023-04-03T14:57:13;21.10;;;11.60;;
39410;SDS011;26579;43.238;23.124;2023-04-03T14:59:40;11.98;;;7.90;;
39410;SDS011;26579;43.238;23.124;2023-04-03T15:02:39;9.73;;;6.53;;
39410;SDS011;26579;43.238;23.124;2023-04-03T15:05:00;22.05;;;13.05;;
39410;SDS011;26579;43.238;23.124;2023-04-03T15:07:29;19.42;;;12.30;;
39410;SDS011;26579;43.238;23.124;2023-04-03T15:09:59;34.35;;;21.95;;
39410;SDS011;26579;43.238;23.124;2023-04-03T15:12:47;26.70;;;18.08;;
39410;SDS011;26579;43.238;23.124;2023-04-03T15:15:14;29.02;;;18.35;;
39410;SDS011;26579;43.238;23.124;2023-04-03T15:17:41;35.03;;;19.70;;
39410;SDS011;26579;43.238;23.124;2023-04-03T15:20:15;29.00;;;16.58;;
39410;SDS011;26579;43.238;23.124;2023-04-03T15:25:08;33.83;;;23.30;;
39410;SDS011;26579;43.238;23.124;2023-04-03T15:27:35;28.55;;;17.45;;
39410;SDS011;26579;43.238;23.124;2023-04-03T15:30:02;42.53;;;29.60;;
39410;SDS011;26579;43.238;23.124;2023-04-03T15:32:29;45.10;;;36.47;;
39410;SDS011;26579;43.238;23.124;2023-04-03T15:34:55;25.70;;;15.98;;
39410;SDS011;26579;43.238;23.124;2023-04-03T15:37:20;20.17;;;14.05;;
39410;SDS011;26579;43.238;23.124;2023-04-03T15:39:46;25.30;;;15.90;;
39410;SDS011;26579;43.238;23.124;2023-04-03T15:42:12;30.08;;;20.98;;
39410;SDS011;26579;43.238;23.124;2023-04-03T15:44:37;27.20;;;18.27;;
39410;SDS011;26579;43.238;23.124;2023-04-03T15:47:03;25.40;;;17.95;;
39410;SDS011;26579;43.238;23.124;2023-04-03T15:49:30;33.95;;;22.17;;
39410;SDS011;26579;43.238;23.124;2023-04-03T15:51:58;20.98;;;13.98;;
39410;SDS011;26579;43.238;23.124;2023-04-03T15:54:23;28.95;;;20.95;;
39410;SDS011;26579;43.238;23.124;2023-04-03T15:56:49;29.85;;;23.80;;
39410;SDS011;26579;43.238;23.124;2023-04-03T15:59:15;30.60;;;19.05;;
39410;SDS011;26579;43.238;23.124;2023-04-03T16:01:41;31.65;;;20.75;;
39410;SDS011;26579;43.238;23.124;2023-04-03T16:04:08;42.42;;;25.38;;
39410;SDS011;26579;43.238;23.124;2023-04-03T16:06:34;46.53;;;25.90;;
39410;SDS011;26579;43.238;23.124;2023-04-03T16:09:00;41.88;;;25.17;;
39410;SDS011;26579;43.238;23.124;2023-04-03T16:11:26;47.50;;;28.45;;
39410;SDS011;26579;43.238;23.124;2023-04-03T16:13:55;41.28;;;26.17;;
39410;SDS011;26579;43.238;23.124;2023-04-03T16:16:22;38.50;;;24.20;;
39410;SDS011;26579;43.238;23.124;2023-04-03T16:18:49;36.83;;;21.83;;
39410;SDS011;26579;43.238;23.124;2023-04-03T16:21:16;37.10;;;24.15;;
39410;SDS011;26579;43.238;23.124;2023-04-03T16:23:43;41.17;;;28.50;;
39410;SDS011;26579;43.238;23.124;2023-04-03T16:26:09;42.63;;;26.38;;
39410;SDS011;26579;43.238;23.124;2023-04-03T16:28:35;31.33;;;22.48;;
39410;SDS011;26579;43.238;23.124;2023-04-03T16:31:01;20.23;;;14.02;;
39410;SDS011;26579;43.238;23.124;2023-04-03T16:33:27;24.73;;;16.00;;